createdAt,value
2023-04-14T00:03:59.727Z,20.97
2023-04-14T00:09:04.736Z,20.95
2023-04-14T00:14:07.458Z,20.90
2023-04-14T00:19:10.497Z,20.88
2023-04-14T00:24:14.632Z,20.82
2023-04-14T00:29:17.413Z,20.77
2023-04-14T00:34:20.192Z,20.74
2023-04-14T00:39:24.376Z,20.69
2023-04-14T00:44:27.888Z,20.66
2023-04-14T00:49:31.305Z,20.62
2023-04-14T00:54:35.468Z,20.52
2023-04-14T00:59:38.262Z,20.53
2023-04-14T01:04:52.856Z,20.49
2023-04-14T01:09:58.274Z,20.46
2023-04-14T01:15:06.351Z,20.41
2023-04-14T01:20:11.881Z,20.37
2023-04-14T01:25:56.132Z,20.35
2023-04-14T01:31:03.838Z,20.30
2023-04-14T01:36:11.526Z,20.27
2023-04-14T01:41:14.306Z,20.23
2023-04-14T01:46:17.132Z,20.23
2023-04-14T01:51:21.652Z,20.21
2023-04-14T01:56:24.461Z,20.19
2023-04-14T02:01:27.619Z,20.17
2023-04-14T02:06:33.308Z,20.14
2023-04-14T02:11:36.075Z,20.11
2023-04-14T02:16:39.014Z,20.09
2023-04-14T02:21:44.168Z,20.08
2023-04-14T02:26:52.191Z,20.03
2023-04-14T02:31:58.707Z,20.04
2023-04-14T02:37:09.126Z,20.03
2023-04-14T02:42:14.104Z,19.99
2023-04-14T02:47:21.055Z,19.96
2023-04-14T02:52:25.634Z,19.95
2023-04-14T02:57:30.802Z,19.92
2023-04-14T03:02:33.726Z,19.91
2023-04-14T03:07:43.615Z,19.90
2023-04-14T03:12:48.151Z,19.90
2023-04-14T03:17:55.782Z,19.88
2023-04-14T03:23:05.028Z,19.86
2023-04-14T03:28:15.868Z,19.83
2023-04-14T03:33:23.634Z,19.84
2023-04-14T03:38:28.754Z,19.84
2023-04-14T03:43:33.867Z,19.82
2023-04-14T03:48:44.123Z,19.81
2023-04-14T03:53:51.875Z,19.79
2023-04-14T03:58:55.299Z,19.77
2023-04-14T04:03:58.291Z,19.78
2023-04-14T04:09:03.014Z,19.77
2023-04-14T04:14:07.163Z,19.75
2023-04-14T04:19:13.039Z,19.74
2023-04-14T04:24:17.986Z,19.73
2023-04-14T04:29:21.719Z,19.73
2023-04-14T04:34:25.611Z,19.71
2023-04-14T04:39:31.780Z,19.68
2023-04-14T04:44:36.560Z,19.68
2023-04-14T04:49:40.331Z,19.66
2023-04-14T04:54:45.461Z,19.66
2023-04-14T04:59:48.414Z,19.64
2023-04-14T05:04:51.299Z,19.63
2023-04-14T05:09:55.510Z,19.64
2023-04-14T05:14:58.291Z,19.63
2023-04-14T05:20:02.036Z,19.63
2023-04-14T05:25:07.930Z,19.60
2023-04-14T05:30:11.767Z,19.62
2023-04-14T05:35:14.583Z,19.60
2023-04-14T05:40:20.501Z,19.60
2023-04-14T05:45:23.353Z,19.59
2023-04-14T05:50:26.332Z,19.57
2023-04-14T05:55:30.484Z,19.60
2023-04-14T06:00:33.309Z,19.60
2023-04-14T06:05:36.113Z,19.61
2023-04-14T06:10:40.299Z,19.61
2023-04-14T06:15:43.188Z,19.60
2023-04-14T06:20:46.442Z,19.57
2023-04-14T06:25:52.221Z,19.61
2023-04-14T06:30:55.413Z,19.62
2023-04-14T06:35:58.262Z,19.61
2023-04-14T06:41:02.550Z,19.63
2023-04-14T06:46:05.805Z,19.64
2023-04-14T06:51:10.825Z,19.66
2023-04-14T06:56:15.303Z,19.69
2023-04-14T07:01:18.202Z,19.71
2023-04-14T07:06:21.199Z,19.58
2023-04-14T07:11:25.307Z,18.66
2023-04-14T07:16:28.241Z,18.02
2023-04-14T07:21:31.860Z,17.63
2023-04-14T07:26:36.315Z,17.35
2023-04-14T07:31:40.168Z,17.23
2023-04-14T07:36:43.340Z,17.68
2023-04-14T07:41:47.935Z,18.18
2023-04-14T07:46:50.863Z,18.57
2023-04-14T07:51:53.806Z,18.86
2023-04-14T07:56:57.967Z,19.06
2023-04-14T08:02:01.345Z,19.25
2023-04-14T08:07:04.289Z,19.38
2023-04-14T08:12:08.799Z,19.50
2023-04-14T08:17:11.781Z,19.58
2023-04-14T08:22:14.521Z,19.67
2023-04-14T08:27:18.710Z,19.75
2023-04-14T08:32:22.243Z,19.78
2023-04-14T08:37:25.727Z,19.86
2023-04-14T08:42:30.120Z,19.87
2023-04-14T08:47:33.050Z,19.90
2023-04-14T08:52:36.483Z,19.95
2023-04-14T08:57:42.340Z,20.00
2023-04-14T09:02:45.269Z,20.06
2023-04-14T09:07:48.308Z,20.11
2023-04-14T09:12:52.672Z,20.17
2023-04-14T09:17:56.107Z,20.17
2023-04-14T09:22:58.965Z,20.22
2023-04-14T09:28:03.261Z,20.24
2023-04-14T09:33:07.308Z,20.28
2023-04-14T09:38:10.368Z,20.30
2023-04-14T09:43:27.334Z,20.33
2023-04-14T09:48:30.218Z,20.38
2023-04-14T09:53:33.897Z,20.42
2023-04-14T09:58:38.627Z,20.43
2023-04-14T10:03:42.276Z,20.41
2023-04-14T10:08:46.293Z,20.42
2023-04-14T10:13:51.254Z,20.29
2023-04-14T10:18:54.503Z,20.22
2023-04-14T10:23:58.035Z,20.27
2023-04-14T10:29:03.462Z,20.29
2023-04-14T10:34:10.810Z,20.30
2023-04-14T10:39:13.912Z,20.32
2023-04-14T10:44:29.355Z,20.33
2023-04-14T10:49:33.175Z,20.32
2023-04-14T10:54:53.209Z,20.35
2023-04-14T10:59:59.173Z,20.31
2023-04-14T11:05:06.564Z,20.29
2023-04-14T11:10:37.498Z,20.27
2023-04-14T11:15:51.984Z,20.22
2023-04-14T11:20:54.983Z,20.25
2023-04-14T11:25:58.635Z,20.19
2023-04-14T11:31:03.679Z,20.33
2023-04-14T11:36:07.706Z,20.28
2023-04-14T11:41:10.675Z,20.25
2023-04-14T11:46:15.463Z,20.25
2023-04-14T11:51:21.743Z,20.39
2023-04-14T11:56:24.808Z,20.49
2023-04-14T12:01:29.805Z,20.58
2023-04-14T12:06:36.448Z,20.61
2023-04-14T12:11:39.304Z,20.64
2023-04-14T12:16:43.608Z,20.69
2023-04-14T12:21:52.473Z,20.78
2023-04-14T12:26:56.997Z,20.81
2023-04-14T12:32:01.593Z,20.86
2023-04-14T12:37:08.293Z,20.91
2023-04-14T12:42:11.666Z,20.90
2023-04-14T12:47:15.810Z,20.96
2023-04-14T12:52:33.372Z,20.98
2023-04-14T12:57:36.559Z,21.02
2023-04-14T13:02:41.097Z,21.14
2023-04-14T13:07:44.926Z,21.13
2023-04-14T13:12:47.772Z,21.15
2023-04-14T13:17:52.116Z,21.17
2023-04-14T13:22:54.902Z,21.18
2023-04-14T13:27:57.764Z,21.22
2023-04-14T13:33:01.969Z,21.25
2023-04-14T13:38:05.588Z,21.25
2023-04-14T13:43:09.550Z,21.28
2023-04-14T13:48:13.994Z,21.25
2023-04-14T13:53:17.210Z,21.28
2023-04-14T13:58:20.070Z,21.25
2023-04-14T14:03:25.279Z,21.25
2023-04-14T14:08:30.230Z,21.22
2023-04-14T14:13:33.451Z,21.21
2023-04-14T14:18:38.309Z,21.28
2023-04-14T14:23:41.407Z,21.28
2023-04-14T14:28:47.334Z,21.22
2023-04-14T14:33:51.724Z,21.31
2023-04-14T14:38:54.518Z,21.25
2023-04-14T14:43:58.593Z,21.33
2023-04-14T14:49:03.704Z,21.31
2023-04-14T14:54:12.487Z,21.39
2023-04-14T14:59:16.242Z,21.43
2023-04-14T15:04:20.458Z,21.50
2023-04-14T15:09:23.283Z,21.44
2023-04-14T15:14:26.292Z,21.52
2023-04-14T15:19:30.476Z,21.54
2023-04-14T15:24:34.430Z,21.52
2023-04-14T15:29:37.273Z,21.50
2023-04-14T15:34:41.563Z,21.53
2023-04-14T15:39:44.395Z,21.52
2023-04-14T15:44:47.322Z,21.52
2023-04-14T15:49:52.364Z,21.51
2023-04-14T15:55:12.182Z,21.54
2023-04-14T16:00:15.988Z,21.53
2023-04-14T16:05:20.323Z,21.54
2023-04-14T16:10:23.240Z,21.51
2023-04-14T16:15:27.346Z,21.53
2023-04-14T16:20:31.752Z,21.61
2023-04-14T16:25:35.077Z,21.66
2023-04-14T16:30:38.387Z,21.64
2023-04-14T16:35:43.291Z,21.65
2023-04-14T16:40:46.382Z,21.48
2023-04-14T16:45:49.247Z,21.55
2023-04-14T16:50:53.894Z,21.58
2023-04-14T16:56:03.497Z,21.54
2023-04-14T17:01:07.291Z,21.57
2023-04-14T17:06:11.750Z,21.53
2023-04-14T17:11:15.315Z,21.47
2023-04-14T17:16:18.121Z,21.46
2023-04-14T17:21:22.281Z,21.50
2023-04-14T17:26:25.041Z,21.46
2023-04-14T17:31:28.106Z,21.42
2023-04-14T17:36:32.300Z,21.46
2023-04-14T17:41:35.431Z,21.50
2023-04-14T17:46:38.379Z,21.55
2023-04-14T17:51:42.623Z,21.56
2023-04-14T17:56:45.412Z,21.55
2023-04-14T18:01:48.375Z,21.54
2023-04-14T18:06:52.688Z,21.55
2023-04-14T18:11:56.145Z,21.52
2023-04-14T18:29:21.282Z,21.62
2023-04-14T18:34:24.146Z,21.61
2023-04-14T18:39:28.744Z,21.58
2023-04-14T18:44:31.687Z,21.57
2023-04-14T18:49:34.486Z,21.53
2023-04-14T18:54:38.879Z,21.55
2023-04-14T18:59:41.833Z,21.55
2023-04-14T19:04:44.927Z,21.56
2023-04-14T19:09:49.098Z,21.55
2023-04-14T19:14:51.834Z,21.58
2023-04-14T19:19:54.845Z,21.58
2023-04-14T19:24:59.006Z,21.50
2023-04-14T19:30:01.968Z,21.43
2023-04-14T19:35:06.448Z,21.52
2023-04-14T19:40:11.351Z,21.55
2023-04-14T19:45:14.095Z,21.57
2023-04-14T19:50:17.145Z,21.59
2023-04-14T19:55:21.314Z,21.64
2023-04-14T20:00:24.825Z,21.61
2023-04-14T20:05:27.749Z,21.57
2023-04-14T20:10:31.933Z,21.62
2023-04-14T20:15:34.786Z,21.60
2023-04-14T20:20:40.182Z,21.60
2023-04-14T20:25:45.522Z,21.58
2023-04-14T20:30:50.851Z,21.57
2023-04-14T20:35:54.141Z,21.59
2023-04-14T20:40:59.044Z,21.62
2023-04-14T20:46:02.102Z,21.58
2023-04-14T20:51:05.300Z,21.54
2023-04-14T20:56:09.446Z,21.56
2023-04-14T21:01:12.252Z,21.55
2023-04-14T21:06:16.064Z,21.55
2023-04-14T21:11:20.207Z,21.48
2023-04-14T21:16:23.088Z,21.56
2023-04-14T21:21:26.148Z,21.58
2023-04-14T21:26:30.364Z,21.61
2023-04-14T21:31:33.461Z,21.61
2023-04-14T21:36:36.720Z,21.64
2023-04-14T21:41:40.899Z,21.63
2023-04-14T21:46:43.656Z,21.67
2023-04-14T21:51:46.541Z,21.69
2023-04-14T21:56:50.673Z,21.75
2023-04-14T22:01:53.459Z,21.75
2023-04-14T22:06:57.353Z,21.76
2023-04-14T22:12:01.496Z,21.77
2023-04-14T22:17:04.484Z,21.77
2023-04-14T22:22:07.478Z,21.77
2023-04-14T22:27:11.655Z,21.79
2023-04-14T22:32:14.427Z,21.81
2023-04-14T22:37:17.166Z,21.83
2023-04-14T22:42:21.313Z,21.85
2023-04-14T22:47:24.212Z,21.84
2023-04-14T22:52:27.865Z,21.87
2023-04-14T22:57:33.120Z,21.90
2023-04-14T23:02:36.679Z,21.83
2023-04-14T23:07:39.862Z,21.87
2023-04-14T23:12:43.949Z,21.87
2023-04-14T23:17:46.951Z,21.84
2023-04-14T23:22:49.756Z,21.85
2023-04-14T23:27:53.897Z,21.87
2023-04-14T23:32:56.932Z,21.87
2023-04-14T23:38:02.307Z,21.85
2023-04-14T23:43:06.506Z,21.87
2023-04-14T23:48:09.435Z,21.86
2023-04-14T23:53:12.327Z,21.85
2023-04-14T23:58:26.161Z,21.88
